sensor_id;sensor_type;location;lat;lon;timestamp;P1;durP1;ratioP1;P2;durP2;ratioP2
46122;SDS011;31856;-35.404;149.120;2022-10-22T00:34:48;1.42;;;0.70;;
46122;SDS011;31856;-35.404;149.120;2022-10-22T00:37:19;0.70;;;0.60;;
46122;SDS011;31856;-35.404;149.120;2022-10-22T00:39:50;0.77;;;0.65;;
46122;SDS011;31856;-35.404;149.120;2022-10-22T00:42:21;0.90;;;0.60;;
46122;SDS011;31856;-35.404;149.120;2022-10-22T00:45:06;0.70;;;0.52;;
46122;SDS011;31856;-35.404;149.120;2022-10-22T00:47:38;1.00;;;0.80;;
46122;SDS011;31856;-35.404;149.120;2022-10-22T00:50:13;1.33;;;0.68;;
46122;SDS011;31856;-35.404;149.120;2022-10-22T00:52:45;1.70;;;0.60;;
46122;SDS011;31856;-35.404;149.120;2022-10-22T00:55:15;0.77;;;0.60;;
46122;SDS011;31856;-35.404;149.120;2022-10-22T00:57:46;0.70;;;0.55;;
46122;SDS011;31856;-35.404;149.120;2022-10-22T01:00:16;0.80;;;0.60;;
46122;SDS011;31856;-35.404;149.120;2022-10-22T01:02:47;0.88;;;0.60;;
46122;SDS011;31856;-35.404;149.120;2022-10-22T01:05:17;0.93;;;0.70;;
46122;SDS011;31856;-35.404;149.120;2022-10-22T01:07:48;2.70;;;0.80;;
46122;SDS011;31856;-35.404;149.120;2022-10-22T01:13:01;1.58;;;0.80;;
46122;SDS011;31856;-35.404;149.120;2022-10-22T01:15:42;1.90;;;0.70;;
46122;SDS011;31856;-35.404;149.120;2022-10-22T01:18:20;1.23;;;0.80;;
46122;SDS011;31856;-35.404;149.120;2022-10-22T01:20:55;0.95;;;0.80;;
46122;SDS011;31856;-35.404;149.120;2022-10-22T01:26:20;1.55;;;0.77;;
46122;SDS011;31856;-35.404;149.120;2022-10-22T01:31:22;2.47;;;0.80;;
46122;SDS011;31856;-35.404;149.120;2022-10-22T01:33:52;1.00;;;0.70;;
46122;SDS011;31856;-35.404;149.120;2022-10-22T01:36:24;1.42;;;1.10;;
46122;SDS011;31856;-35.404;149.120;2022-10-22T01:38:54;0.90;;;0.68;;
46122;SDS011;31856;-35.404;149.120;2022-10-22T01:41:26;1.75;;;1.08;;
46122;SDS011;31856;-35.404;149.120;2022-10-22T01:44:01;0.80;;;0.57;;
46122;SDS011;31856;-35.404;149.120;2022-10-22T01:46:31;1.05;;;0.95;;
46122;SDS011;31856;-35.404;149.120;2022-10-22T01:49:15;2.67;;;1.55;;
46122;SDS011;31856;-35.404;149.120;2022-10-22T01:59:48;2.33;;;1.40;;
46122;SDS011;31856;-35.404;149.120;2022-10-22T02:05:03;0.85;;;0.65;;
46122;SDS011;31856;-35.404;149.120;2022-10-22T02:07:37;1.40;;;0.80;;
46122;SDS011;31856;-35.404;149.120;2022-10-22T02:10:09;1.02;;;0.80;;
46122;SDS011;31856;-35.404;149.120;2022-10-22T02:12:41;1.17;;;0.90;;
46122;SDS011;31856;-35.404;149.120;2022-10-22T02:15:12;1.15;;;0.70;;
46122;SDS011;31856;-35.404;149.120;2022-10-22T02:17:43;0.93;;;0.65;;
46122;SDS011;31856;-35.404;149.120;2022-10-22T02:22:44;0.93;;;0.70;;
46122;SDS011;31856;-35.404;149.120;2022-10-22T02:25:18;1.35;;;0.90;;
46122;SDS011;31856;-35.404;149.120;2022-10-22T02:28:01;1.30;;;1.00;;
46122;SDS011;31856;-35.404;149.120;2022-10-22T02:30:33;1.35;;;0.98;;
46122;SDS011;31856;-35.404;149.120;2022-10-22T02:33:09;1.48;;;1.00;;
46122;SDS011;31856;-35.404;149.120;2022-10-22T02:38:12;1.40;;;1.13;;
46122;SDS011;31856;-35.404;149.120;2022-10-22T02:40:43;2.83;;;1.10;;
46122;SDS011;31856;-35.404;149.120;2022-10-22T02:43:13;1.55;;;1.20;;
46122;SDS011;31856;-35.404;149.120;2022-10-22T02:45:43;1.15;;;0.90;;
46122;SDS011;31856;-35.404;149.120;2022-10-22T03:00:30;2.00;;;1.30;;
46122;SDS011;31856;-35.404;149.120;2022-10-22T03:03:04;2.65;;;1.00;;
46122;SDS011;31856;-35.404;149.120;2022-10-22T03:05:36;3.60;;;1.02;;
46122;SDS011;31856;-35.404;149.120;2022-10-22T03:08:06;2.45;;;0.88;;
46122;SDS011;31856;-35.404;149.120;2022-10-22T03:10:37;1.33;;;0.80;;
46122;SDS011;31856;-35.404;149.120;2022-10-22T03:13:07;1.55;;;0.90;;
46122;SDS011;31856;-35.404;149.120;2022-10-22T03:15:37;1.05;;;0.75;;
46122;SDS011;31856;-35.404;149.120;2022-10-22T03:18:07;1.77;;;1.02;;
46122;SDS011;31856;-35.404;149.120;2022-10-22T03:20:37;2.08;;;0.90;;
46122;SDS011;31856;-35.404;149.120;2022-10-22T03:23:07;1.60;;;1.10;;
46122;SDS011;31856;-35.404;149.120;2022-10-22T03:25:40;1.40;;;1.00;;
46122;SDS011;31856;-35.404;149.120;2022-10-22T03:28:10;1.33;;;1.02;;
46122;SDS011;31856;-35.404;149.120;2022-10-22T03:30:42;1.80;;;0.70;;
46122;SDS011;31856;-35.404;149.120;2022-10-22T03:33:13;1.10;;;0.90;;
46122;SDS011;31856;-35.404;149.120;2022-10-22T03:35:44;1.02;;;0.68;;
46122;SDS011;31856;-35.404;149.120;2022-10-22T03:38:15;1.10;;;0.80;;
46122;SDS011;31856;-35.404;149.120;2022-10-22T03:40:48;1.95;;;0.90;;
46122;SDS011;31856;-35.404;149.120;2022-10-22T03:43:19;0.90;;;0.70;;
46122;SDS011;31856;-35.404;149.120;2022-10-22T03:45:49;0.90;;;0.73;;
46122;SDS011;31856;-35.404;149.120;2022-10-22T03:48:19;1.00;;;0.90;;
46122;SDS011;31856;-35.404;149.120;2022-10-22T03:50:49;1.02;;;0.90;;
46122;SDS011;31856;-35.404;149.120;2022-10-22T03:53:19;0.90;;;0.80;;
46122;SDS011;31856;-35.404;149.120;2022-10-22T03:55:49;0.98;;;0.80;;
46122;SDS011;31856;-35.404;149.120;2022-10-22T03:58:19;0.85;;;0.80;;
46122;SDS011;31856;-35.404;149.120;2022-10-22T04:21:09;0.80;;;0.52;;
46122;SDS011;31856;-35.404;149.120;2022-10-22T04:23:43;1.70;;;0.80;;
46122;SDS011;31856;-35.404;149.120;2022-10-22T04:26:13;2.25;;;0.63;;
46122;SDS011;31856;-35.404;149.120;2022-10-22T04:28:44;1.75;;;0.73;;
46122;SDS011;31856;-35.404;149.120;2022-10-22T04:31:18;1.20;;;0.60;;
46122;SDS011;31856;-35.404;149.120;2022-10-22T04:33:57;3.58;;;1.42;;
46122;SDS011;31856;-35.404;149.120;2022-10-22T04:36:41;1.20;;;1.08;;
46122;SDS011;31856;-35.404;149.120;2022-10-22T04:39:11;1.83;;;1.30;;
46122;SDS011;31856;-35.404;149.120;2022-10-22T04:41:56;1.30;;;0.90;;
46122;SDS011;31856;-35.404;149.120;2022-10-22T04:44:39;1.85;;;0.70;;
46122;SDS011;31856;-35.404;149.120;2022-10-22T04:47:58;1.63;;;0.70;;
46122;SDS011;31856;-35.404;149.120;2022-10-22T04:50:28;1.35;;;0.70;;
46122;SDS011;31856;-35.404;149.120;2022-10-22T04:53:01;0.65;;;0.60;;
46122;SDS011;31856;-35.404;149.120;2022-10-22T04:55:40;0.85;;;0.77;;
46122;SDS011;31856;-35.404;149.120;2022-10-22T04:58:39;0.90;;;0.63;;
46122;SDS011;31856;-35.404;149.120;2022-10-22T05:01:40;1.00;;;0.80;;
46122;SDS011;31856;-35.404;149.120;2022-10-22T05:04:16;0.88;;;0.70;;
46122;SDS011;31856;-35.404;149.120;2022-10-22T05:07:08;0.70;;;0.70;;
46122;SDS011;31856;-35.404;149.120;2022-10-22T05:10:04;1.10;;;0.90;;
46122;SDS011;31856;-35.404;149.120;2022-10-22T05:12:58;1.13;;;0.93;;
46122;SDS011;31856;-35.404;149.120;2022-10-22T05:15:28;1.10;;;1.00;;
46122;SDS011;31856;-35.404;149.120;2022-10-22T05:17:58;2.55;;;1.00;;
46122;SDS011;31856;-35.404;149.120;2022-10-22T06:29:29;1.45;;;1.00;;
46122;SDS011;31856;-35.404;149.120;2022-10-22T06:32:00;1.85;;;0.95;;
46122;SDS011;31856;-35.404;149.120;2022-10-22T06:34:29;1.20;;;1.00;;
46122;SDS011;31856;-35.404;149.120;2022-10-22T06:37:00;1.55;;;1.10;;
46122;SDS011;31856;-35.404;149.120;2022-10-22T06:39:39;1.65;;;1.00;;
46122;SDS011;31856;-35.404;149.120;2022-10-22T06:42:27;2.40;;;1.10;;
46122;SDS011;31856;-35.404;149.120;2022-10-22T06:45:00;1.30;;;1.00;;
46122;SDS011;31856;-35.404;149.120;2022-10-22T06:47:39;1.15;;;1.00;;
46122;SDS011;31856;-35.404;149.120;2022-10-22T06:50:12;1.20;;;0.80;;
46122;SDS011;31856;-35.404;149.120;2022-10-22T06:52:57;2.00;;;0.80;;
46122;SDS011;31856;-35.404;149.120;2022-10-22T06:55:30;2.15;;;0.80;;
46122;SDS011;31856;-35.404;149.120;2022-10-22T06:58:03;1.00;;;0.85;;
46122;SDS011;31856;-35.404;149.120;2022-10-22T07:42:37;1.83;;;0.50;;
46122;SDS011;31856;-35.404;149.120;2022-10-22T07:45:08;0.90;;;0.60;;
46122;SDS011;31856;-35.404;149.120;2022-10-22T07:47:38;1.77;;;0.60;;
46122;SDS011;31856;-35.404;149.120;2022-10-22T07:50:09;2.05;;;0.50;;
46122;SDS011;31856;-35.404;149.120;2022-10-22T07:52:39;1.00;;;0.63;;
46122;SDS011;31856;-35.404;149.120;2022-10-22T07:55:10;1.23;;;0.50;;
46122;SDS011;31856;-35.404;149.120;2022-10-22T07:57:40;1.98;;;0.65;;
46122;SDS011;31856;-35.404;149.120;2022-10-22T08:00:11;1.58;;;0.80;;
46122;SDS011;31856;-35.404;149.120;2022-10-22T08:02:41;0.93;;;0.50;;
46122;SDS011;31856;-35.404;149.120;2022-10-22T08:05:12;1.00;;;0.57;;
46122;SDS011;31856;-35.404;149.120;2022-10-22T08:07:43;1.23;;;0.60;;
46122;SDS011;31856;-35.404;149.120;2022-10-22T08:10:13;0.85;;;0.63;;
46122;SDS011;31856;-35.404;149.120;2022-10-22T08:12:43;1.23;;;0.50;;
46122;SDS011;31856;-35.404;149.120;2022-10-22T08:15:13;1.60;;;0.60;;
46122;SDS011;31856;-35.404;149.120;2022-10-22T08:17:44;3.08;;;0.63;;
46122;SDS011;31856;-35.404;149.120;2022-10-22T08:20:14;3.03;;;0.70;;
46122;SDS011;31856;-35.404;149.120;2022-10-22T08:22:44;2.20;;;0.80;;
46122;SDS011;31856;-35.404;149.120;2022-10-22T08:25:32;0.95;;;0.60;;
46122;SDS011;31856;-35.404;149.120;2022-10-22T08:28:02;1.63;;;0.82;;
46122;SDS011;31856;-35.404;149.120;2022-10-22T08:30:32;1.38;;;0.65;;
46122;SDS011;31856;-35.404;149.120;2022-10-22T08:33:05;0.60;;;0.55;;
46122;SDS011;31856;-35.404;149.120;2022-10-22T08:35:35;1.50;;;0.60;;
46122;SDS011;31856;-35.404;149.120;2022-10-22T08:38:05;1.10;;;0.80;;
46122;SDS011;31856;-35.404;149.120;2022-10-22T14:10:39;1.98;;;1.70;;
46122;SDS011;31856;-35.404;149.120;2022-10-22T14:13:04;2.00;;;1.70;;
46122;SDS011;31856;-35.404;149.120;2022-10-22T14:15:35;2.80;;;1.55;;
46122;SDS011;31856;-35.404;149.120;2022-10-22T14:18:07;1.90;;;1.70;;
46122;SDS011;31856;-35.404;149.120;2022-10-22T14:20:40;4.10;;;1.65;;
46122;SDS011;31856;-35.404;149.120;2022-10-22T14:23:16;1.80;;;1.60;;
46122;SDS011;31856;-35.404;149.120;2022-10-22T14:25:48;2.53;;;2.10;;
46122;SDS011;31856;-35.404;149.120;2022-10-22T14:28:18;2.08;;;1.88;;
46122;SDS011;31856;-35.404;149.120;2022-10-22T14:30:50;2.05;;;1.85;;
46122;SDS011;31856;-35.404;149.120;2022-10-22T14:33:22;2.10;;;1.90;;
46122;SDS011;31856;-35.404;149.120;2022-10-22T14:35:57;2.35;;;1.90;;
46122;SDS011;31856;-35.404;149.120;2022-10-22T14:38:28;2.13;;;1.88;;
46122;SDS011;31856;-35.404;149.120;2022-10-22T14:40:58;3.08;;;2.33;;
46122;SDS011;31856;-35.404;149.120;2022-10-22T14:43:29;3.03;;;2.10;;
46122;SDS011;31856;-35.404;149.120;2022-10-22T14:45:59;2.35;;;2.00;;
46122;SDS011;31856;-35.404;149.120;2022-10-22T14:48:29;2.97;;;2.05;;
46122;SDS011;31856;-35.404;149.120;2022-10-22T14:50:59;2.85;;;2.00;;
46122;SDS011;31856;-35.404;149.120;2022-10-22T14:53:29;4.18;;;2.80;;
46122;SDS011;31856;-35.404;149.120;2022-10-22T14:55:58;2.50;;;2.15;;
46122;SDS011;31856;-35.404;149.120;2022-10-22T14:58:30;2.35;;;1.95;;
46122;SDS011;31856;-35.404;149.120;2022-10-22T15:01:03;3.10;;;2.28;;
46122;SDS011;31856;-35.404;149.120;2022-10-22T15:03:34;3.17;;;2.67;;
46122;SDS011;31856;-35.404;149.120;2022-10-22T15:06:04;3.83;;;2.53;;
